MST,Max TemperatureF,Mean TemperatureF,Min TemperatureF,Max Dew PointF,MeanDew PointF,Min DewpointF,Max Humidity, Mean Humidity, Min Humidity, Max Sea Level PressureIn, Mean Sea Level PressureIn, Min Sea Level PressureIn, Max VisibilityMiles, Mean VisibilityMiles, Min VisibilityMiles, Max Wind SpeedMPH, Mean Wind SpeedMPH, Max Gust SpeedMPH,PrecipitationIn, CloudCover, Events, WindDirDegrees
2012-12-1,49,42,34,39,36,34,100,81,61,29.83,29.75,29.66,10,5,0,17,5,22,0.39,7,Fog-Rain,135
2012-12-2,44,39,34,41,34,26,100,80,59,29.88,29.54,29.30,10,9,2,20,7,25,0.33,7,Rain,157
2012-12-3,44,40,35,31,28,27,76,65,53,30.18,30.07,29.88,10,10,10,14,6,18,T,8,,151
2012-12-4,47,40,33,40,33,25,89,74,59,30.14,29.99,29.87,10,10,10,24,12,29,0.03,7,Rain,121
2012-12-5,47,40,33,40,29,19,83,63,43,30.17,29.99,29.79,10,10,10,31,8,40,0.09,6,Rain,299
2012-12-6,34,32,29,28,26,21,92,74,56,30.19,30.09,29.97,10,9,2,12,3,14,T,7,Snow,324
2012-12-7,37,32,26,32,28,24,92,78,64,30.06,29.81,29.69,10,4,0,33,8,44,0.25,8,Fog-Snow,240
2012-12-8,33,24,15,27,20,11,96,71,46,30.35,30.04,29.73,10,7,1,24,2,29,0.02,7,Snow,320
2012-12-9,21,14,6,17,12,7,92,83,73,30.54,30.38,30.24,10,8,1,9,2,12,0.02,7,Snow,122
2012-12-10,35,25,15,26,21,13,91,80,69,30.28,30.19,30.07,10,9,5,16,5,21,0.01,7,Snow,328
2012-12-11,40,35,29,30,29,26,92,81,70,30.07,29.78,29.56,10,10,3,9,2,12,T,8,Snow,328
2012-12-12,37,33,29,33,30,28,100,93,85,29.96,29.73,29.56,10,4,1,6,2,7,0.02,8,Snow,279
2012-12-13,36,27,18,30,24,14,100,82,64,30.06,29.96,29.87,10,6,0,9,4,10,0.00,6,Fog,114
2012-12-14,25,18,10,19,15,9,100,87,74,29.99,29.90,29.78,10,9,0,6,0,6,T,6,Fog,278
2012-12-15,28,25,21,22,20,19,92,87,81,30.00,29.89,29.74,10,10,8,7,1,32,T,7,,161
2012-12-16,35,26,16,24,19,15,100,77,54,29.84,29.74,29.51,10,10,2,18,5,24,T,6,Snow,153
2012-12-17,42,35,27,30,26,19,100,76,52,29.76,29.45,29.31,10,4,0,29,10,35,0.15,8,Fog-Snow,114
2012-12-18,31,23,15,19,14,11,81,64,47,30.05,29.94,29.78,10,10,10,15,2,17,T,5,,112
2012-12-19,29,20,11,15,12,10,96,71,46,30.21,30.15,30.04,10,10,10,17,6,22,0.00,6,,123
2012-12-20,38,30,22,22,17,11,65,57,48,30.17,30.06,29.96,10,10,10,21,14,25,0.00,7,,112
2012-12-21,34,29,24,25,22,19,81,70,59,30.03,29.98,29.94,10,10,10,10,2,13,0.00,6,,231
2012-12-22,40,33,26,32,25,20,96,70,44,29.95,29.82,29.72,10,9,2,22,8,26,0.08,6,Rain-Snow,137
2012-12-23,37,30,23,32,26,21,100,78,56,30.04,29.90,29.69,10,4,0,21,7,26,0.01,6,Fog-Snow,110
2012-12-24,34,28,21,27,22,12,92,79,66,30.25,30.00,29.68,10,8,1,20,8,22,0.02,7,Snow,124
2012-12-25,24,22,19,19,14,10,92,77,62,30.28,30.13,29.96,10,10,7,18,7,22,T,7,Snow,143
2012-12-26,27,24,20,23,20,18,92,84,75,29.96,29.90,29.78,10,8,2,5,0,7,0.01,8,Snow,311
2012-12-27,29,26,23,25,23,21,100,91,81,30.14,30.02,29.87,10,5,1,7,0,8,0.01,8,Snow,120
2012-12-28,32,29,25,26,25,20,100,86,72,30.27,30.17,30.04,10,8,2,7,1,10,T,7,Snow,212
2012-12-29,26,20,14,21,17,13,100,84,68,30.29,30.19,30.05,10,8,0,9,2,14,0.01,4,Fog-Snow,185
2012-12-30,26,22,17,20,19,16,92,83,74,30.32,30.23,30.08,10,7,2,8,2,10,0.01,8,Snow,8
2012-12-31,27,25,22,19,17,16,84,76,68,30.44,30.34,30.16,10,10,10,9,2,12,T,7,,337